HTMU

Musoma Airport

Musoma, Tanzania
METAR HTMU 231200Z 10004KT 9999 FEW024 FEW025CB BKN100 28/13 Q1018
Observed Flight Rules
Jul-23 @ 12:00 UTC (an hour ago) Visual Flight Rules
Wind Visibility Clouds
100° at 4 knots 10,000+ meters
  • Few at 2,400' AGL
  • Few at 2,500' AGL
  • Broken at 10,000' AGL
Temperatures Readings
Current 28°C / 82°F
Dewpoint 13°C / 55°F
Humidity 40%
Altimeter 30.06" Hg
Pressure 1018 hPa
Elevation 1147
METAR HTMU 231200Z 10004KT 9999 FEW024 FEW025CB BKN100 28/13 Q1018
Observed Flight Rules
Jul-23 @ 12:00 UTC
(an hour ago)
VFR
Wind Visibility
100° at 4 knots 10,000+ meters
Clouds
  • Few at 2,400' AGL
  • Few at 2,500' AGL
  • Broken at 10,000' AGL
Temperature Dewpoint
28°C / 82°F 13°C / 55°F
Humidity Altimeter Pressure
40% 30.06" Hg 1018 hPa